createdAt,value
2019-05-15T00:00:33.174Z,86.50
2019-05-15T00:03:13.321Z,86.50
2019-05-15T00:05:54.306Z,87.00
2019-05-15T00:08:34.591Z,87.10
2019-05-15T00:11:14.640Z,87.10
2019-05-15T00:17:08.233Z,87.60
2019-05-15T00:19:48.612Z,86.50
2019-05-15T00:22:29.285Z,87.50
2019-05-15T00:24:58.130Z,88.00
2019-05-15T00:30:32.610Z,87.10
2019-05-15T00:33:12.777Z,88.30
2019-05-15T00:35:52.899Z,88.60
2019-05-15T00:41:53.357Z,90.00
2019-05-15T00:44:28.110Z,89.00
2019-05-15T00:47:10.534Z,89.90
2019-05-15T00:49:49.881Z,90.40
2019-05-15T00:52:30.013Z,89.20
2019-05-15T00:55:10.040Z,89.70
2019-05-15T00:57:49.963Z,88.10
2019-05-15T01:00:30.206Z,84.10
2019-05-15T01:03:10.617Z,84.00
2019-05-15T01:05:51.169Z,84.80
2019-05-15T01:08:31.356Z,84.70
2019-05-15T01:11:11.394Z,85.40
2019-05-15T01:13:51.434Z,84.40
2019-05-15T01:16:31.582Z,84.60
2019-05-15T01:19:14.951Z,85.10
2019-05-15T01:21:53.960Z,86.10
2019-05-15T01:24:34.019Z,87.00
2019-05-15T01:27:14.057Z,87.10
2019-05-15T01:29:54.531Z,86.70
2019-05-15T01:32:34.590Z,87.20
2019-05-15T01:35:14.703Z,87.80
2019-05-15T01:37:54.869Z,88.10
2019-05-15T01:40:34.902Z,88.10
2019-05-15T01:43:15.054Z,88.80
2019-05-15T01:45:55.211Z,88.60
2019-05-15T01:48:35.123Z,88.60
2019-05-15T01:51:15.318Z,89.00
2019-05-15T01:53:55.470Z,88.00
2019-05-15T01:56:35.605Z,88.30
2019-05-15T01:59:15.781Z,88.10
2019-05-15T02:01:56.007Z,87.50
2019-05-15T02:04:23.681Z,87.90
2019-05-15T02:07:10.751Z,88.30
2019-05-15T02:09:58.246Z,88.20
2019-05-15T02:12:39.852Z,87.10
2019-05-15T02:15:19.905Z,87.40
2019-05-15T02:18:00.000Z,87.50
2019-05-15T02:20:40.027Z,87.70
2019-05-15T02:23:20.751Z,87.50
2019-05-15T02:26:00.394Z,87.90
2019-05-15T02:28:40.161Z,87.30
2019-05-15T02:31:20.122Z,87.50
2019-05-15T02:34:00.209Z,87.10
2019-05-15T02:36:40.487Z,87.20
2019-05-15T02:39:20.517Z,85.90
2019-05-15T02:42:00.717Z,86.80
2019-05-15T02:44:40.889Z,85.80
2019-05-15T02:47:21.309Z,85.30
2019-05-15T02:50:01.692Z,84.20
2019-05-15T02:52:45.176Z,84.80
2019-05-15T02:55:29.389Z,84.70
2019-05-15T02:58:09.635Z,84.90
2019-05-15T03:00:53.167Z,85.70
2019-05-15T03:03:30.520Z,86.40
2019-05-15T03:06:10.645Z,87.70
2019-05-15T03:08:50.865Z,87.00
2019-05-15T03:11:31.170Z,86.90
2019-05-15T03:14:11.664Z,84.70
2019-05-15T03:16:39.723Z,85.10
2019-05-15T03:19:29.925Z,85.70
2019-05-15T03:22:10.660Z,85.60
2019-05-15T03:24:50.728Z,85.50
2019-05-15T03:27:34.227Z,85.30
2019-05-15T03:30:14.723Z,84.40
2019-05-15T03:33:02.269Z,84.30
2019-05-15T03:35:42.001Z,84.00
2019-05-15T03:38:09.187Z,83.30
2019-05-15T03:40:55.574Z,83.20
2019-05-15T03:43:39.117Z,82.30
2019-05-15T03:46:19.945Z,82.00
2019-05-15T03:49:00.575Z,82.80
2019-05-15T03:51:45.470Z,81.50
2019-05-15T03:54:22.339Z,80.60
2019-05-15T03:57:02.597Z,81.40
2019-05-15T03:59:30.567Z,80.80
2019-05-15T04:02:19.571Z,80.50
2019-05-15T04:05:11.250Z,80.80
2019-05-15T04:07:49.665Z,80.40
2019-05-15T04:10:29.662Z,80.30
2019-05-15T04:13:10.050Z,80.60
2019-05-15T04:15:50.537Z,81.50
2019-05-15T04:18:31.273Z,81.10
2019-05-15T04:21:11.184Z,80.30
2019-05-15T04:23:51.363Z,79.80
2019-05-15T04:26:31.596Z,79.30
2019-05-15T04:29:11.969Z,79.30
2019-05-15T04:32:01.169Z,78.90
2019-05-15T04:34:34.200Z,79.20
2019-05-15T04:37:14.186Z,78.90
2019-05-15T04:39:54.484Z,79.50
2019-05-15T04:42:34.343Z,79.60
2019-05-15T04:45:14.538Z,79.30
2019-05-15T04:47:55.031Z,79.30
2019-05-15T04:50:34.889Z,79.80
2019-05-15T04:53:15.091Z,80.40
2019-05-15T04:55:55.411Z,81.00
2019-05-15T04:58:39.557Z,81.40
2019-05-15T05:01:09.367Z,80.50
2019-05-15T05:03:58.726Z,80.10
2019-05-15T05:06:25.479Z,79.70
2019-05-15T05:09:12.654Z,79.80
2019-05-15T05:11:59.714Z,79.40
2019-05-15T05:14:28.486Z,80.10
2019-05-15T05:17:09.454Z,78.90
2019-05-15T05:19:51.417Z,78.70
2019-05-15T05:22:31.222Z,77.70
2019-05-15T05:25:13.727Z,77.50
2019-05-15T05:27:53.690Z,77.50
2019-05-15T05:30:33.566Z,76.60
2019-05-15T05:33:14.042Z,76.30
2019-05-15T05:35:53.985Z,75.90
2019-05-15T05:38:34.047Z,76.30
2019-05-15T05:41:14.485Z,76.00
2019-05-15T05:43:54.369Z,74.90
2019-05-15T05:46:34.457Z,74.30
2019-05-15T05:49:14.718Z,75.50
2019-05-15T05:51:55.018Z,75.70
2019-05-15T05:57:19.173Z,74.20
2019-05-15T06:03:10.776Z,74.60
2019-05-15T06:05:50.849Z,73.60
2019-05-15T06:08:31.215Z,74.30
2019-05-15T06:11:11.309Z,74.20
2019-05-15T06:13:52.608Z,74.10
2019-05-15T06:16:32.475Z,72.10
2019-05-15T06:19:12.669Z,71.80
2019-05-15T06:21:57.352Z,72.50
2019-05-15T06:24:34.319Z,71.40
2019-05-15T06:27:14.484Z,71.70
2019-05-15T06:29:42.138Z,72.10
2019-05-15T06:32:29.186Z,70.80
2019-05-15T06:35:31.162Z,69.90
2019-05-15T06:38:19.467Z,70.90
2019-05-15T06:40:59.562Z,69.90
2019-05-15T06:43:28.033Z,69.80
2019-05-15T06:45:58.496Z,70.10
2019-05-15T06:48:38.213Z,69.70
2019-05-15T06:51:18.442Z,71.40
2019-05-15T06:53:58.846Z,66.40
2019-05-15T06:56:28.178Z,65.50
2019-05-15T06:59:17.898Z,67.30
2019-05-15T07:01:59.335Z,65.10
2019-05-15T07:04:38.923Z,65.00
2019-05-15T07:07:19.142Z,63.50
2019-05-15T07:09:48.615Z,62.40
2019-05-15T07:12:35.689Z,61.30
2019-05-15T07:15:15.630Z,62.20
2019-05-15T07:17:57.876Z,62.30
2019-05-15T07:20:39.077Z,63.40
2019-05-15T07:23:19.205Z,61.80
2019-05-15T07:25:59.973Z,64.20
2019-05-15T07:28:40.748Z,63.60
2019-05-15T07:31:20.383Z,63.50
2019-05-15T07:34:00.554Z,63.20
2019-05-15T07:36:42.051Z,61.60
2019-05-15T07:39:22.545Z,60.00
2019-05-15T07:42:02.858Z,56.30
2019-05-15T07:44:42.881Z,58.30
2019-05-15T07:47:23.028Z,58.10
2019-05-15T07:50:03.166Z,58.80
2019-05-15T07:52:43.255Z,58.30
2019-05-15T07:55:23.438Z,58.50
2019-05-15T07:58:03.592Z,59.00
2019-05-15T08:00:43.853Z,59.90
2019-05-15T08:03:23.568Z,59.70
2019-05-15T08:06:03.798Z,59.50
2019-05-15T08:11:54.677Z,59.90
2019-05-15T08:14:41.770Z,59.20
2019-05-15T08:17:22.160Z,58.40
2019-05-15T08:20:02.574Z,59.00
2019-05-15T08:22:45.804Z,59.70
2019-05-15T08:25:32.247Z,60.00
2019-05-15T08:28:09.130Z,59.50
2019-05-15T08:30:49.855Z,60.10
2019-05-15T08:33:30.070Z,60.10
2019-05-15T08:38:51.057Z,60.60
2019-05-15T08:41:39.309Z,60.10
2019-05-15T08:44:21.606Z,59.30
2019-05-15T08:47:01.422Z,58.30
2019-05-15T08:49:41.526Z,57.00
2019-05-15T08:52:21.622Z,56.20
2019-05-15T08:55:02.168Z,55.60
2019-05-15T08:57:42.306Z,55.10
2019-05-15T09:00:22.480Z,55.60
2019-05-15T09:03:02.709Z,56.20
2019-05-15T09:05:42.939Z,56.50
2019-05-15T09:08:23.204Z,57.60
2019-05-15T09:11:03.045Z,57.20
2019-05-15T09:13:44.421Z,57.70
2019-05-15T09:16:25.110Z,57.20
2019-05-15T09:19:05.213Z,55.90
2019-05-15T09:21:45.126Z,54.80
2019-05-15T09:24:25.186Z,54.40
2019-05-15T09:27:09.415Z,53.80
2019-05-15T09:29:48.430Z,54.90
2019-05-15T09:32:28.554Z,54.00
2019-05-15T09:35:08.551Z,54.80
2019-05-15T09:37:48.928Z,53.50
2019-05-15T09:40:42.395Z,50.80
2019-05-15T09:42:59.013Z,49.80
2019-05-15T09:45:46.109Z,50.50
2019-05-15T09:48:28.675Z,49.60
2019-05-15T09:51:09.256Z,48.00
2019-05-15T09:53:49.506Z,47.20
2019-05-15T09:56:29.780Z,46.60
2019-05-15T09:59:09.818Z,46.50
2019-05-15T10:01:50.008Z,46.90
2019-05-15T10:04:30.190Z,45.10
2019-05-15T10:07:10.184Z,45.00
2019-05-15T10:09:52.361Z,44.20
2019-05-15T10:12:35.147Z,43.80
2019-05-15T10:15:15.267Z,44.20
2019-05-15T10:17:55.571Z,44.70
2019-05-15T10:20:35.740Z,46.00
2019-05-15T10:23:19.157Z,45.60
2019-05-15T10:25:58.883Z,45.50
2019-05-15T10:28:39.353Z,43.00
2019-05-15T10:31:20.578Z,41.60
2019-05-15T10:34:00.340Z,42.90
2019-05-15T10:36:40.578Z,41.00
2019-05-15T10:42:19.702Z,38.80
2019-05-15T10:45:00.013Z,38.80
2019-05-15T10:47:40.037Z,39.30
2019-05-15T10:50:20.259Z,40.10
2019-05-15T10:53:00.633Z,41.80
2019-05-15T10:55:40.280Z,42.10
2019-05-15T10:58:21.965Z,40.40
2019-05-15T11:01:03.552Z,37.80
2019-05-15T11:03:43.658Z,39.30
2019-05-15T11:06:23.578Z,39.30
2019-05-15T11:09:04.434Z,37.20
2019-05-15T11:11:44.613Z,38.80
2019-05-15T11:14:24.782Z,37.80
2019-05-15T11:17:04.874Z,37.40
2019-05-15T11:19:44.945Z,38.60
2019-05-15T11:22:25.110Z,38.80
2019-05-15T11:25:05.395Z,40.80
2019-05-15T11:30:59.569Z,42.80
2019-05-15T11:33:40.075Z,42.10
2019-05-15T11:36:20.197Z,42.40
2019-05-15T11:39:00.382Z,43.40
2019-05-15T11:41:40.518Z,42.60
2019-05-15T11:44:20.570Z,42.90
2019-05-15T11:47:00.674Z,43.80
2019-05-15T11:49:41.873Z,43.40
2019-05-15T11:52:21.993Z,42.70
2019-05-15T11:55:01.971Z,43.00
2019-05-15T11:57:46.844Z,43.30
2019-05-15T12:00:16.061Z,43.20
2019-05-15T12:03:01.186Z,43.30
2019-05-15T12:05:41.450Z,42.80
2019-05-15T12:08:21.830Z,41.90
2019-05-15T12:11:01.974Z,40.70
2019-05-15T12:13:42.170Z,39.80
2019-05-15T12:16:22.247Z,40.30
2019-05-15T12:19:09.085Z,40.20
2019-05-15T12:21:44.512Z,40.80
2019-05-15T12:24:31.617Z,40.50
2019-05-15T12:27:15.182Z,40.10
2019-05-15T12:29:39.496Z,41.60
2019-05-15T12:32:33.143Z,41.70
2019-05-15T12:35:06.720Z,41.50
2019-05-15T12:37:47.309Z,41.40
2019-05-15T13:02:10.360Z,40.40
2019-05-15T13:04:51.341Z,39.60
2019-05-15T13:07:32.529Z,39.10
2019-05-15T13:10:00.156Z,38.60
2019-05-15T13:12:59.236Z,40.00
2019-05-15T13:15:40.455Z,38.80
2019-05-15T13:18:18.197Z,39.60
2019-05-15T13:20:59.516Z,37.70
2019-05-15T13:23:39.453Z,39.20
2019-05-15T13:26:26.181Z,38.30
2019-05-15T13:29:02.124Z,36.80
2019-05-15T13:31:29.818Z,37.20
2019-05-15T13:34:19.620Z,37.30
2019-05-15T13:37:08.610Z,37.30
2019-05-15T13:39:48.569Z,36.00
2019-05-15T13:42:28.866Z,35.10
2019-05-15T13:45:12.637Z,37.50
2019-05-15T13:47:53.260Z,36.40
2019-05-15T13:50:33.079Z,37.40
2019-05-15T13:53:13.383Z,38.30
2019-05-15T13:55:53.705Z,35.10
2019-05-15T13:58:33.462Z,35.00
2019-05-15T14:01:01.331Z,36.60
2019-05-15T14:03:48.758Z,36.80
2019-05-15T14:06:37.818Z,37.50
2019-05-15T14:09:17.955Z,37.80
2019-05-15T14:11:59.587Z,38.50
2019-05-15T14:14:40.266Z,37.80
2019-05-15T14:17:20.458Z,38.20
2019-05-15T14:20:00.656Z,38.90
2019-05-15T14:22:40.790Z,37.10
2019-05-15T14:25:20.736Z,37.50
2019-05-15T14:28:01.120Z,40.60
2019-05-15T14:30:41.105Z,40.60
2019-05-15T14:33:21.057Z,41.20
2019-05-15T14:36:01.253Z,40.00
2019-05-15T14:38:41.981Z,39.90
2019-05-15T14:41:22.554Z,39.10
2019-05-15T14:44:14.388Z,38.90
2019-05-15T14:46:45.405Z,39.50
2019-05-15T14:49:33.315Z,39.00
2019-05-15T14:52:09.248Z,40.40
2019-05-15T14:54:49.923Z,38.60
2019-05-15T14:57:30.030Z,40.10
2019-05-15T15:00:10.142Z,39.80
2019-05-15T15:02:50.125Z,37.60
2019-05-15T15:05:30.482Z,38.60
2019-05-15T15:08:21.604Z,38.00
2019-05-15T15:10:52.462Z,39.30
2019-05-15T15:13:32.542Z,40.00
2019-05-15T15:16:12.977Z,41.30
2019-05-15T15:18:52.586Z,40.80
2019-05-15T15:21:32.883Z,39.90
2019-05-15T15:24:13.100Z,39.20
2019-05-15T15:26:53.297Z,39.90
2019-05-15T15:29:33.202Z,39.20
2019-05-15T15:32:13.566Z,39.90
2019-05-15T15:34:53.467Z,38.50
2019-05-15T15:37:33.556Z,40.00
2019-05-15T15:40:13.590Z,39.90
2019-05-15T15:42:53.662Z,40.10
2019-05-15T15:45:33.891Z,38.70
2019-05-15T15:48:13.925Z,39.90
2019-05-15T15:50:53.997Z,40.00
2019-05-15T15:53:34.365Z,42.70
2019-05-15T15:56:14.503Z,43.70
2019-05-15T15:58:55.743Z,43.40
2019-05-15T16:01:36.100Z,44.40
2019-05-15T16:04:18.651Z,43.80
2019-05-15T16:06:48.271Z,43.40
2019-05-15T16:09:35.238Z,44.10
2019-05-15T16:12:15.439Z,44.40
2019-05-15T16:14:57.808Z,44.70
2019-05-15T16:17:38.531Z,43.10
2019-05-15T16:20:20.312Z,44.50
2019-05-15T16:22:59.901Z,44.90
2019-05-15T16:25:40.094Z,44.80
2019-05-15T16:28:19.970Z,45.10
2019-05-15T16:30:59.924Z,45.10
2019-05-15T16:33:39.575Z,45.10
2019-05-15T16:36:19.689Z,45.00
2019-05-15T16:39:07.493Z,45.80
2019-05-15T16:41:44.797Z,46.90
2019-05-15T16:44:25.711Z,46.10
2019-05-15T16:47:08.258Z,47.10
2019-05-15T16:49:48.650Z,47.00
2019-05-15T16:52:30.905Z,47.20
2019-05-15T16:55:10.613Z,47.60
2019-05-15T16:57:52.803Z,48.40
2019-05-15T17:00:32.704Z,47.90
2019-05-15T17:03:15.341Z,47.40
2019-05-15T17:05:55.682Z,47.50
2019-05-15T17:08:37.357Z,48.20
2019-05-15T17:11:19.707Z,47.90
2019-05-15T17:13:59.558Z,48.00
2019-05-15T17:16:40.162Z,48.70
2019-05-15T17:19:19.946Z,49.10
2019-05-15T17:22:00.966Z,49.40
2019-05-15T17:24:41.014Z,49.20
2019-05-15T17:27:21.202Z,49.70
2019-05-15T17:30:02.473Z,50.10
2019-05-15T17:32:42.977Z,50.40
2019-05-15T17:35:22.822Z,50.00
2019-05-15T17:38:02.805Z,50.50
2019-05-15T17:40:42.966Z,50.50
2019-05-15T17:43:22.971Z,50.60
2019-05-15T17:46:04.668Z,50.80
2019-05-15T17:48:32.529Z,50.80
2019-05-15T17:51:19.550Z,51.00
2019-05-15T17:54:08.797Z,51.40
2019-05-15T17:56:49.033Z,51.60
2019-05-15T17:59:29.315Z,51.60
2019-05-15T18:02:09.397Z,51.90
2019-05-15T18:04:49.517Z,52.70
2019-05-15T18:07:29.420Z,52.20
2019-05-15T18:10:09.520Z,51.00
2019-05-15T18:12:38.794Z,52.00
2019-05-15T18:15:25.945Z,52.30
2019-05-15T18:18:09.132Z,52.30
2019-05-15T18:20:35.346Z,52.70
2019-05-15T18:23:03.025Z,53.20
2019-05-15T18:25:50.082Z,53.70
2019-05-15T18:28:30.196Z,52.80
2019-05-15T18:31:10.266Z,53.30
2019-05-15T18:33:53.648Z,53.40
2019-05-15T18:36:32.562Z,53.40
2019-05-15T18:39:12.234Z,53.90
2019-05-15T18:41:52.121Z,52.50
2019-05-15T18:44:32.349Z,52.50
2019-05-15T18:47:12.399Z,53.20
2019-05-15T18:50:04.155Z,53.10
2019-05-15T18:52:38.133Z,53.20
2019-05-15T18:58:19.180Z,52.80
2019-05-15T19:01:00.718Z,53.00
2019-05-15T19:03:40.881Z,53.30
2019-05-15T19:06:21.238Z,52.00
2019-05-15T19:09:01.769Z,53.00
2019-05-15T19:11:41.528Z,53.40
2019-05-15T19:14:21.593Z,52.90
2019-05-15T19:17:02.044Z,53.00
2019-05-15T19:19:41.814Z,53.20
2019-05-15T19:22:22.046Z,53.50
2019-05-15T19:25:03.526Z,54.10
2019-05-15T19:27:43.135Z,54.00
2019-05-15T19:30:23.352Z,54.70
2019-05-15T19:32:51.058Z,53.70
2019-05-15T19:35:38.665Z,54.50
2019-05-15T19:38:19.889Z,54.70
2019-05-15T19:41:02.632Z,54.50
2019-05-15T19:43:42.124Z,53.60
2019-05-15T19:46:22.245Z,53.70
2019-05-15T19:49:02.489Z,53.40
2019-05-15T19:51:42.478Z,54.10
2019-05-15T19:54:22.581Z,54.00
2019-05-15T19:57:02.746Z,53.90
2019-05-15T19:59:43.821Z,54.70
2019-05-15T20:02:23.893Z,55.20
2019-05-15T20:05:04.107Z,56.00
2019-05-15T20:07:44.414Z,55.60
2019-05-15T20:10:26.005Z,55.60
2019-05-15T20:13:06.437Z,55.80
2019-05-15T20:15:48.592Z,55.40
2019-05-15T20:18:28.558Z,54.20
2019-05-15T20:21:10.708Z,54.90
2019-05-15T20:23:50.754Z,55.00
2019-05-15T20:26:30.784Z,55.60
2019-05-15T20:29:11.071Z,56.60
2019-05-15T20:31:51.020Z,56.60
2019-05-15T20:34:18.855Z,56.60
2019-05-15T20:37:05.885Z,56.80
2019-05-15T20:39:48.805Z,56.50
2019-05-15T20:42:28.273Z,56.30
2019-05-15T20:45:11.860Z,56.10
2019-05-15T20:47:51.039Z,57.20
2019-05-15T20:50:30.751Z,55.60
2019-05-15T20:53:11.121Z,56.50
2019-05-15T20:55:51.173Z,56.80
2019-05-15T20:58:31.270Z,57.20
2019-05-15T21:01:11.623Z,57.40
2019-05-15T21:03:51.593Z,57.30
2019-05-15T21:06:31.917Z,57.30
2019-05-15T21:09:12.276Z,57.70
2019-05-15T21:11:52.159Z,58.30
2019-05-15T21:14:32.429Z,58.30
2019-05-15T21:17:12.400Z,58.00
2019-05-15T21:19:52.522Z,58.60
2019-05-15T21:22:32.762Z,58.40
2019-05-15T21:25:12.744Z,58.40
2019-05-15T21:27:52.698Z,58.80
2019-05-15T21:30:33.090Z,58.80
2019-05-15T21:33:13.254Z,59.20
2019-05-15T21:35:53.506Z,59.30
2019-05-15T21:38:33.795Z,59.90
2019-05-15T21:41:13.826Z,59.80
2019-05-15T21:43:54.139Z,60.10
2019-05-15T21:46:34.453Z,60.50
2019-05-15T21:49:14.658Z,60.30
2019-05-15T21:51:54.928Z,60.50
2019-05-15T21:54:35.190Z,61.10
2019-05-15T21:57:32.372Z,60.70
2019-05-15T21:59:57.787Z,61.20
2019-05-15T22:02:38.968Z,61.70
2019-05-15T22:05:18.984Z,62.10
2019-05-15T22:07:59.738Z,63.20
2019-05-15T22:10:39.625Z,63.00
2019-05-15T22:13:31.586Z,63.00
2019-05-15T22:16:18.794Z,64.50
2019-05-15T22:18:59.122Z,64.50
2019-05-15T22:21:40.796Z,64.50
2019-05-15T22:24:20.845Z,64.40
2019-05-15T22:27:00.948Z,64.30
2019-05-15T22:29:41.055Z,64.50
2019-05-15T22:32:21.003Z,64.60
2019-05-15T22:35:09.377Z,64.90
2019-05-15T22:40:55.545Z,66.20
2019-05-15T22:43:35.928Z,66.50
2019-05-15T22:46:18.437Z,66.70
2019-05-15T22:48:59.011Z,67.50
2019-05-15T22:51:39.389Z,67.30
2019-05-15T22:54:20.519Z,67.20
2019-05-15T22:57:00.749Z,67.40
2019-05-15T22:59:40.879Z,67.40
2019-05-15T23:02:21.238Z,67.70
2019-05-15T23:05:01.371Z,67.50
2019-05-15T23:07:42.418Z,67.90
2019-05-15T23:10:23.038Z,68.20
2019-05-15T23:13:03.709Z,68.10
2019-05-15T23:15:44.413Z,68.10
2019-05-15T23:18:25.153Z,68.70
2019-05-15T23:21:04.807Z,68.90
2019-05-15T23:23:32.555Z,69.50
2019-05-15T23:26:19.693Z,70.10
2019-05-15T23:29:07.947Z,70.60
2019-05-15T23:31:48.509Z,70.90
2019-05-15T23:34:28.924Z,71.10
2019-05-15T23:37:09.101Z,70.50
2019-05-15T23:39:49.193Z,71.00
2019-05-15T23:42:29.402Z,71.80
2019-05-15T23:45:09.346Z,71.90
2019-05-15T23:47:50.652Z,71.80
2019-05-15T23:50:30.689Z,71.90
2019-05-15T23:53:10.969Z,72.50
2019-05-15T23:55:50.782Z,72.90
2019-05-15T23:58:30.759Z,73.20
